createdAt,value
2022-12-16T00:00:10.123Z,37.60
2022-12-16T00:01:10.273Z,40.00
2022-12-16T00:02:10.100Z,37.70
2022-12-16T00:03:10.241Z,35.60
2022-12-16T00:04:10.054Z,37.60
2022-12-16T00:05:10.070Z,37.70
2022-12-16T00:06:10.038Z,39.90
2022-12-16T00:07:10.016Z,35.70
2022-12-16T00:08:10.003Z,36.80
2022-12-16T00:09:09.991Z,36.20
2022-12-16T00:10:09.983Z,35.10
2022-12-16T00:11:09.994Z,34.50
2022-12-16T00:12:09.966Z,38.70
2022-12-16T00:13:10.759Z,36.10
2022-12-16T00:14:09.933Z,37.90
2022-12-16T00:15:09.927Z,36.80
2022-12-16T00:16:09.992Z,35.90
2022-12-16T00:17:09.916Z,36.20
2022-12-16T00:18:09.884Z,34.80
2022-12-16T00:19:09.871Z,35.10
2022-12-16T00:20:09.865Z,36.80
2022-12-16T00:21:09.867Z,36.50
2022-12-16T00:22:09.841Z,37.70
2022-12-16T00:23:09.826Z,38.40
2022-12-16T00:24:09.822Z,37.80
2022-12-16T00:25:09.800Z,38.20
2022-12-16T00:26:09.801Z,34.20
2022-12-16T00:27:09.772Z,34.10
2022-12-16T00:28:09.762Z,37.10
2022-12-16T00:29:09.765Z,38.10
2022-12-16T00:30:09.735Z,35.30
2022-12-16T00:31:09.786Z,38.90
2022-12-16T00:32:09.717Z,36.10
2022-12-16T00:33:09.718Z,34.70
2022-12-16T00:34:09.692Z,37.20
2022-12-16T00:35:09.691Z,35.60
2022-12-16T00:36:09.681Z,36.50
2022-12-16T00:37:09.659Z,36.50
2022-12-16T00:38:09.645Z,36.20
2022-12-16T00:39:09.630Z,37.10
2022-12-16T00:40:09.622Z,38.40
2022-12-16T00:41:09.636Z,37.90
2022-12-16T00:42:09.602Z,41.50
2022-12-16T00:43:09.583Z,39.50
2022-12-16T00:44:09.572Z,40.00
2022-12-16T00:45:09.683Z,41.80
2022-12-16T00:46:09.736Z,44.20
2022-12-16T00:47:09.573Z,43.70
2022-12-16T00:48:09.523Z,44.30
2022-12-16T00:49:09.543Z,43.60
2022-12-16T00:50:09.509Z,38.90
2022-12-16T00:51:09.531Z,37.70
2022-12-16T00:52:09.473Z,34.80
2022-12-16T00:53:09.515Z,35.50
2022-12-16T00:54:09.498Z,34.70
2022-12-16T00:55:09.439Z,37.40
2022-12-16T00:56:09.443Z,36.40
2022-12-16T00:57:09.427Z,38.70
2022-12-16T00:58:09.398Z,41.60
2022-12-16T00:59:09.392Z,45.60
2022-12-16T01:00:09.502Z,51.30
2022-12-16T01:01:09.474Z,53.70
2022-12-16T01:02:09.537Z,51.00
2022-12-16T01:03:09.529Z,57.80
2022-12-16T01:04:09.333Z,55.40
2022-12-16T01:05:09.386Z,55.60
2022-12-16T01:06:09.333Z,62.00
2022-12-16T01:07:09.309Z,47.50
2022-12-16T01:08:09.312Z,43.00
2022-12-16T01:09:09.274Z,42.00
2022-12-16T01:10:09.256Z,42.60
2022-12-16T01:11:09.243Z,47.10
2022-12-16T01:12:09.292Z,51.20
2022-12-16T01:13:09.225Z,55.00
2022-12-16T01:14:09.210Z,51.80
2022-12-16T01:15:09.199Z,48.40
2022-12-16T01:16:09.328Z,49.00
2022-12-16T01:17:09.202Z,52.60
2022-12-16T01:18:09.185Z,56.40
2022-12-16T01:19:09.159Z,54.10
2022-12-16T01:20:09.136Z,55.60
2022-12-16T01:21:09.140Z,54.50
2022-12-16T01:22:09.129Z,60.30
2022-12-16T01:23:09.115Z,59.60
2022-12-16T01:24:09.122Z,68.10
2022-12-16T01:25:09.082Z,64.60
2022-12-16T01:26:09.077Z,49.80
2022-12-16T01:27:09.072Z,50.30
2022-12-16T01:28:09.044Z,49.10
2022-12-16T01:29:09.029Z,48.50
2022-12-16T01:30:09.102Z,52.30
2022-12-16T01:31:09.006Z,50.50
2022-12-16T01:32:09.089Z,47.60
2022-12-16T01:33:08.980Z,47.70
2022-12-16T01:34:08.981Z,45.20
2022-12-16T01:35:29.540Z,42.00
2022-12-16T01:36:08.996Z,38.90
2022-12-16T01:37:08.970Z,42.10
2022-12-16T01:38:08.920Z,38.50
2022-12-16T01:39:08.917Z,39.60
2022-12-16T01:40:08.894Z,40.10
2022-12-16T01:41:08.895Z,42.20
2022-12-16T01:42:08.888Z,42.10
2022-12-16T01:43:08.862Z,43.90
2022-12-16T01:44:08.847Z,42.90
2022-12-16T01:45:08.833Z,41.20
2022-12-16T01:46:08.895Z,41.70
2022-12-16T01:47:08.831Z,39.50
2022-12-16T01:48:08.795Z,36.20
2022-12-16T01:49:08.795Z,37.10
2022-12-16T01:50:08.775Z,37.90
2022-12-16T01:51:08.763Z,42.20
2022-12-16T01:52:08.770Z,38.20
2022-12-16T01:53:08.754Z,40.10
2022-12-16T01:54:08.730Z,40.10
2022-12-16T01:55:08.724Z,40.70
2022-12-16T01:56:08.703Z,39.30
2022-12-16T01:57:08.712Z,39.30
2022-12-16T01:58:08.679Z,38.50
2022-12-16T01:59:08.674Z,35.90
2022-12-16T02:00:08.653Z,36.10
2022-12-16T02:01:08.754Z,39.00
2022-12-16T02:02:08.884Z,39.10
2022-12-16T02:03:08.661Z,39.20
2022-12-16T02:04:08.606Z,38.20
2022-12-16T02:05:08.637Z,40.60
2022-12-16T02:06:08.614Z,40.60
2022-12-16T02:07:08.614Z,42.20
2022-12-16T02:08:08.573Z,42.90
2022-12-16T02:09:08.592Z,41.90
2022-12-16T02:10:08.538Z,45.50
2022-12-16T02:11:08.522Z,40.90
2022-12-16T02:12:08.579Z,42.50
2022-12-16T02:13:08.546Z,40.40
2022-12-16T02:14:08.486Z,47.00
2022-12-16T02:15:08.476Z,44.20
2022-12-16T02:16:11.675Z,45.00
2022-12-16T02:17:08.560Z,44.00
2022-12-16T02:18:08.455Z,49.00
2022-12-16T02:19:08.423Z,45.60
2022-12-16T02:20:08.436Z,45.70
2022-12-16T02:21:08.414Z,51.30
2022-12-16T02:22:08.393Z,47.30
2022-12-16T02:23:09.126Z,50.00
2022-12-16T02:24:08.382Z,43.00
2022-12-16T02:25:08.374Z,45.40
2022-12-16T02:26:08.343Z,44.00
2022-12-16T02:27:08.337Z,45.50
2022-12-16T02:28:08.332Z,43.90
2022-12-16T02:29:08.311Z,46.00
2022-12-16T02:30:08.291Z,40.80
2022-12-16T02:31:08.345Z,47.30
2022-12-16T02:32:08.269Z,48.20
2022-12-16T02:33:08.280Z,47.00
2022-12-16T02:34:08.243Z,49.20
2022-12-16T02:35:08.235Z,51.10
2022-12-16T02:36:08.225Z,53.70
2022-12-16T02:37:08.207Z,49.40
2022-12-16T02:38:08.215Z,42.90
2022-12-16T02:39:08.191Z,44.40
2022-12-16T02:40:08.172Z,40.60
2022-12-16T02:41:08.293Z,40.30
2022-12-16T02:42:08.150Z,42.40
2022-12-16T02:43:08.154Z,40.50
2022-12-16T02:44:08.125Z,41.50
2022-12-16T02:45:08.127Z,40.50
2022-12-16T02:46:08.208Z,39.70
2022-12-16T02:47:08.089Z,39.40
2022-12-16T02:48:08.094Z,41.40
2022-12-16T02:49:08.071Z,41.10
2022-12-16T02:50:08.058Z,40.20
2022-12-16T02:51:08.044Z,39.20
2022-12-16T02:52:08.026Z,40.70
2022-12-16T02:53:08.032Z,40.60
2022-12-16T02:54:08.009Z,39.30
2022-12-16T02:55:07.994Z,39.30
2022-12-16T02:56:07.979Z,41.90
2022-12-16T02:57:07.984Z,38.90
2022-12-16T02:58:07.998Z,41.00
2022-12-16T02:59:07.944Z,43.20
2022-12-16T03:00:07.965Z,40.10
2022-12-16T03:01:08.051Z,46.50
2022-12-16T03:02:08.117Z,44.70
2022-12-16T03:03:08.148Z,40.20
2022-12-16T03:06:34.615Z,39.60
2022-12-16T03:07:31.861Z,42.30
2022-12-16T03:08:31.868Z,42.30
2022-12-16T03:09:31.828Z,44.20
2022-12-16T03:10:31.814Z,40.50
2022-12-16T03:11:31.801Z,39.30
2022-12-16T03:12:31.821Z,40.70
2022-12-16T03:13:32.051Z,40.90
2022-12-16T03:14:31.769Z,40.60
2022-12-16T03:15:31.753Z,38.50
2022-12-16T03:16:31.905Z,41.20
2022-12-16T03:17:31.730Z,46.60
2022-12-16T03:18:31.738Z,48.40
2022-12-16T03:19:31.708Z,46.00
2022-12-16T03:20:31.700Z,46.30
2022-12-16T03:21:31.681Z,44.60
2022-12-16T03:22:31.672Z,42.40
2022-12-16T03:23:31.947Z,41.70
2022-12-16T03:24:31.649Z,41.90
2022-12-16T03:25:31.634Z,43.20
2022-12-16T03:26:31.621Z,43.40
2022-12-16T03:27:31.610Z,43.30
2022-12-16T03:28:31.635Z,43.40
2022-12-16T03:29:31.587Z,41.00
2022-12-16T03:30:31.622Z,39.30
2022-12-16T03:31:31.559Z,41.70
2022-12-16T03:32:31.555Z,40.50
2022-12-16T03:33:31.956Z,39.50
2022-12-16T03:34:31.580Z,41.50
2022-12-16T03:35:31.526Z,41.30
2022-12-16T03:36:31.499Z,40.70
2022-12-16T03:37:31.511Z,41.90
2022-12-16T03:38:31.490Z,39.60
2022-12-16T03:39:31.492Z,40.60
2022-12-16T03:40:31.454Z,41.20
2022-12-16T03:41:31.438Z,47.60
2022-12-16T03:42:31.426Z,49.10
2022-12-16T03:43:31.917Z,45.50
2022-12-16T03:44:31.484Z,49.30
2022-12-16T03:45:31.388Z,43.60
2022-12-16T03:46:31.399Z,40.60
2022-12-16T03:47:31.379Z,45.20
2022-12-16T03:48:31.652Z,40.30
2022-12-16T03:49:31.348Z,40.50
2022-12-16T03:50:31.335Z,40.10
2022-12-16T03:51:31.314Z,42.00
2022-12-16T03:52:31.332Z,39.70
2022-12-16T03:53:31.627Z,38.20
2022-12-16T03:54:31.281Z,42.10
2022-12-16T03:55:31.291Z,42.90
2022-12-16T03:56:31.254Z,43.90
2022-12-16T03:57:31.294Z,45.80
2022-12-16T03:58:31.242Z,51.80
2022-12-16T03:59:31.214Z,56.70
2022-12-16T04:00:31.265Z,61.60
2022-12-16T04:01:31.317Z,57.80
2022-12-16T04:02:31.373Z,49.80
2022-12-16T04:03:31.653Z,46.20
2022-12-16T04:04:31.155Z,44.10
2022-12-16T04:05:31.179Z,45.20
2022-12-16T04:06:31.138Z,43.30
2022-12-16T04:07:31.121Z,40.50
2022-12-16T04:08:31.129Z,40.70
2022-12-16T04:09:31.093Z,43.60
2022-12-16T04:10:31.082Z,45.80
2022-12-16T04:11:31.086Z,43.60
2022-12-16T04:12:31.059Z,44.00
2022-12-16T04:13:31.502Z,42.90
2022-12-16T04:14:31.038Z,41.40
2022-12-16T04:15:31.081Z,44.00
2022-12-16T04:16:31.032Z,41.60
2022-12-16T04:17:31.004Z,40.20
2022-12-16T04:18:31.600Z,40.50
2022-12-16T04:19:30.994Z,40.80
2022-12-16T04:20:30.961Z,40.20
2022-12-16T04:21:30.963Z,44.60
2022-12-16T04:22:30.934Z,39.40
2022-12-16T04:23:31.364Z,41.20
2022-12-16T04:24:30.926Z,42.00
2022-12-16T04:25:30.897Z,38.50
2022-12-16T04:26:30.886Z,39.60
2022-12-16T04:27:30.894Z,38.20
2022-12-16T04:28:30.874Z,35.90
2022-12-16T04:29:30.879Z,40.80
2022-12-16T04:30:30.840Z,42.70
2022-12-16T04:31:30.867Z,41.70
2022-12-16T04:32:30.840Z,40.90
2022-12-16T04:33:31.282Z,43.80
2022-12-16T04:34:30.806Z,42.40
2022-12-16T04:35:30.772Z,43.20
2022-12-16T04:36:30.762Z,40.20
2022-12-16T04:37:30.756Z,47.00
2022-12-16T04:38:30.737Z,41.90
2022-12-16T04:39:30.747Z,41.60
2022-12-16T04:40:30.759Z,39.80
2022-12-16T04:41:30.701Z,42.30
2022-12-16T04:42:30.689Z,40.40
2022-12-16T04:43:30.992Z,45.40
2022-12-16T04:44:30.684Z,46.90
2022-12-16T04:45:30.656Z,52.00
2022-12-16T04:46:30.707Z,54.20
2022-12-16T04:47:30.732Z,57.30
2022-12-16T04:48:30.651Z,48.20
2022-12-16T04:49:30.627Z,41.90
2022-12-16T04:50:30.606Z,45.40
2022-12-16T04:51:30.578Z,43.30
2022-12-16T04:52:30.567Z,45.30
2022-12-16T04:53:30.997Z,43.70
2022-12-16T04:54:30.579Z,51.50
2022-12-16T04:55:30.549Z,49.00
2022-12-16T04:56:30.523Z,51.00
2022-12-16T04:57:30.506Z,49.50
2022-12-16T04:58:30.497Z,52.30
2022-12-16T04:59:30.482Z,57.60
2022-12-16T05:00:30.488Z,54.70
2022-12-16T05:01:30.655Z,52.20
2022-12-16T05:02:30.627Z,53.10
2022-12-16T05:03:30.894Z,47.70
2022-12-16T05:04:30.444Z,48.00
2022-12-16T05:05:30.425Z,45.30
2022-12-16T05:06:30.396Z,49.10
2022-12-16T05:07:36.322Z,44.60
2022-12-16T05:08:31.379Z,46.40
2022-12-16T05:09:30.365Z,47.90
2022-12-16T05:10:30.376Z,50.00
2022-12-16T05:11:30.348Z,50.30
2022-12-16T05:12:30.321Z,48.40
2022-12-16T05:13:30.629Z,49.10
2022-12-16T05:14:30.301Z,45.30
2022-12-16T05:15:30.300Z,43.40
2022-12-16T05:16:30.354Z,46.60
2022-12-16T05:17:30.264Z,45.30
2022-12-16T05:18:30.252Z,43.80
2022-12-16T05:19:31.805Z,44.30
2022-12-16T05:20:30.264Z,45.70
2022-12-16T05:21:30.220Z,43.20
2022-12-16T05:22:30.218Z,43.40
2022-12-16T05:23:30.709Z,42.70
2022-12-16T05:24:30.181Z,41.00
2022-12-16T05:25:30.184Z,41.40
2022-12-16T05:26:30.154Z,40.90
2022-12-16T05:27:30.145Z,40.50
2022-12-16T05:28:30.130Z,44.10
2022-12-16T05:29:30.133Z,42.80
2022-12-16T05:30:33.614Z,41.00
2022-12-16T05:31:30.140Z,41.80
2022-12-16T05:32:30.079Z,38.90
2022-12-16T05:33:30.423Z,38.30
2022-12-16T05:34:30.058Z,40.90
2022-12-16T05:35:30.085Z,41.30
2022-12-16T05:36:30.055Z,41.30
2022-12-16T05:37:30.021Z,37.30
2022-12-16T05:38:30.016Z,40.70
2022-12-16T05:39:30.000Z,42.50
2022-12-16T05:40:30.000Z,41.70
2022-12-16T05:41:29.968Z,44.70
2022-12-16T05:42:29.962Z,44.00
2022-12-16T05:43:30.230Z,41.00
2022-12-16T05:44:29.933Z,43.50
2022-12-16T05:45:29.938Z,57.10
2022-12-16T05:46:30.027Z,54.70
2022-12-16T05:47:29.904Z,50.50
2022-12-16T05:48:29.887Z,49.50
2022-12-16T05:49:29.873Z,48.00
2022-12-16T05:50:29.878Z,45.60
2022-12-16T05:51:29.848Z,38.90
2022-12-16T05:52:29.869Z,38.40
2022-12-16T05:53:30.034Z,35.50
2022-12-16T05:54:29.816Z,37.30
2022-12-16T05:55:33.902Z,34.60
2022-12-16T05:56:29.791Z,32.50
2022-12-16T05:57:29.782Z,34.10
2022-12-16T05:58:29.768Z,39.40
2022-12-16T05:59:29.760Z,44.40
2022-12-16T06:00:29.777Z,44.50
2022-12-16T06:01:29.909Z,44.70
2022-12-16T06:02:29.940Z,41.30
2022-12-16T06:03:29.968Z,48.30
2022-12-16T06:04:29.699Z,51.00
2022-12-16T06:05:29.692Z,53.70
2022-12-16T06:06:29.689Z,61.00
2022-12-16T06:07:29.660Z,61.20
2022-12-16T06:08:29.674Z,57.20
2022-12-16T06:09:29.641Z,63.20
2022-12-16T06:10:29.625Z,54.40
2022-12-16T06:11:29.632Z,54.60
2022-12-16T06:12:29.603Z,45.00
2022-12-16T06:13:29.874Z,39.40
2022-12-16T06:14:29.612Z,38.80
2022-12-16T06:15:29.575Z,38.30
2022-12-16T06:16:29.622Z,39.30
2022-12-16T06:17:29.544Z,39.40
2022-12-16T06:18:29.528Z,39.20
2022-12-16T06:19:29.520Z,42.50
2022-12-16T06:20:29.509Z,41.00
2022-12-16T06:21:29.514Z,43.90
2022-12-16T06:22:29.481Z,41.70
2022-12-16T06:23:29.479Z,39.50
2022-12-16T06:24:29.480Z,36.90
2022-12-16T06:25:29.457Z,37.80
2022-12-16T06:26:29.453Z,36.80
2022-12-16T06:27:29.430Z,36.20
2022-12-16T06:28:29.414Z,37.60
2022-12-16T06:29:29.402Z,35.30
2022-12-16T06:30:29.394Z,34.70
2022-12-16T06:31:29.456Z,40.20
2022-12-16T06:32:29.377Z,37.10
2022-12-16T06:33:29.569Z,36.10
2022-12-16T06:34:29.345Z,36.50
2022-12-16T06:35:29.330Z,38.90
2022-12-16T06:36:29.339Z,35.90
2022-12-16T06:37:29.314Z,35.30
2022-12-16T06:38:29.299Z,38.20
2022-12-16T06:39:29.290Z,37.30
2022-12-16T06:40:29.293Z,37.30
2022-12-16T06:41:29.287Z,37.80
2022-12-16T06:42:29.251Z,39.60
2022-12-16T06:43:29.421Z,41.80
2022-12-16T06:44:29.226Z,36.00
2022-12-16T06:45:34.513Z,37.60
2022-12-16T06:46:29.287Z,37.50
2022-12-16T06:47:29.189Z,37.40
2022-12-16T06:48:29.178Z,38.30
2022-12-16T06:49:29.171Z,41.10
2022-12-16T06:50:29.155Z,42.90
2022-12-16T06:51:29.162Z,43.50
2022-12-16T06:52:29.129Z,43.20
2022-12-16T06:53:29.399Z,38.20
2022-12-16T06:54:29.112Z,40.20
2022-12-16T06:55:29.100Z,39.50
2022-12-16T06:56:29.125Z,37.20
2022-12-16T06:57:29.075Z,38.40
2022-12-16T06:58:29.061Z,34.40
2022-12-16T06:59:29.047Z,40.60
2022-12-16T07:00:29.036Z,34.20
2022-12-16T07:01:29.199Z,41.40
2022-12-16T07:02:29.091Z,42.30
2022-12-16T07:03:34.096Z,43.10
2022-12-16T07:04:28.993Z,40.50
2022-12-16T07:05:28.977Z,46.20
2022-12-16T07:06:28.986Z,61.30
2022-12-16T07:07:28.968Z,61.80
2022-12-16T07:08:28.944Z,46.70
2022-12-16T07:09:28.936Z,41.00
2022-12-16T07:10:28.919Z,41.40
2022-12-16T07:11:28.915Z,41.80
2022-12-16T07:12:28.939Z,37.30
2022-12-16T07:13:29.153Z,41.90
2022-12-16T07:14:28.872Z,42.00
2022-12-16T07:15:28.866Z,43.50
2022-12-16T07:16:28.968Z,38.80
2022-12-16T07:17:28.860Z,38.20
2022-12-16T07:18:28.828Z,40.70
2022-12-16T07:19:28.814Z,39.40
2022-12-16T07:20:28.884Z,39.90
2022-12-16T07:21:28.792Z,39.50
2022-12-16T07:22:28.798Z,39.70
2022-12-16T07:23:28.769Z,35.10
2022-12-16T07:24:28.751Z,37.10
2022-12-16T07:25:28.743Z,36.60
2022-12-16T07:26:28.731Z,42.80
2022-12-16T07:27:28.735Z,41.40
2022-12-16T07:28:28.723Z,78.90
2022-12-16T07:29:28.701Z,57.30
2022-12-16T07:30:28.723Z,48.90
2022-12-16T07:31:28.726Z,53.80
2022-12-16T07:32:28.675Z,51.20
2022-12-16T07:33:28.651Z,49.40
2022-12-16T07:34:28.636Z,48.90
2022-12-16T07:35:28.628Z,46.40
2022-12-16T07:36:28.619Z,49.00
2022-12-16T07:37:28.616Z,50.60
2022-12-16T07:38:28.590Z,45.70
2022-12-16T07:39:28.579Z,48.10
2022-12-16T07:40:28.646Z,46.20
2022-12-16T07:41:28.553Z,45.30
2022-12-16T07:42:28.559Z,46.40
2022-12-16T07:43:28.532Z,47.70
2022-12-16T07:44:28.541Z,41.70
2022-12-16T07:45:28.655Z,42.70
2022-12-16T07:46:28.591Z,35.20
2022-12-16T07:47:28.504Z,37.00
2022-12-16T07:48:28.486Z,41.90
2022-12-16T07:49:28.465Z,44.50
2022-12-16T07:50:28.506Z,40.60
2022-12-16T07:51:28.438Z,41.40
2022-12-16T07:52:28.449Z,41.10
2022-12-16T07:53:31.223Z,43.60
2022-12-16T07:54:28.400Z,50.50
2022-12-16T07:55:28.393Z,47.90
2022-12-16T07:56:28.379Z,46.70
2022-12-16T07:57:28.381Z,53.50
2022-12-16T07:58:28.360Z,45.30
2022-12-16T07:59:28.345Z,45.60
2022-12-16T08:00:28.433Z,45.80
2022-12-16T08:01:28.438Z,46.90
2022-12-16T08:02:28.483Z,43.20
2022-12-16T08:03:28.389Z,39.80
2022-12-16T08:04:28.285Z,35.50
2022-12-16T08:05:28.276Z,37.70
2022-12-16T08:06:28.256Z,40.30
2022-12-16T08:07:28.261Z,36.10
2022-12-16T08:08:28.236Z,37.00
2022-12-16T08:09:28.222Z,34.60
2022-12-16T08:10:28.263Z,33.10
2022-12-16T08:11:28.197Z,33.30
2022-12-16T08:12:28.201Z,32.90
2022-12-16T08:13:28.182Z,33.80
2022-12-16T08:14:28.164Z,33.90
2022-12-16T08:15:28.152Z,34.00
2022-12-16T08:16:28.264Z,32.20
2022-12-16T08:17:28.148Z,37.20
2022-12-16T08:18:28.117Z,35.20
2022-12-16T08:19:28.104Z,37.10
2022-12-16T08:20:28.090Z,36.20
2022-12-16T08:21:28.084Z,40.70
2022-12-16T08:22:28.091Z,38.40
2022-12-16T08:23:28.060Z,36.00
2022-12-16T08:24:28.046Z,35.80
2022-12-16T08:25:28.032Z,33.50
2022-12-16T08:26:28.025Z,28.80
2022-12-16T08:27:28.009Z,30.70
2022-12-16T08:28:28.017Z,27.80
2022-12-16T08:29:43.624Z,30.00
2022-12-16T08:30:28.124Z,28.60
2022-12-16T08:31:28.020Z,25.80
2022-12-16T08:32:27.989Z,25.90
2022-12-16T08:33:27.952Z,27.00
2022-12-16T08:34:27.915Z,27.90
2022-12-16T08:35:27.906Z,27.40
2022-12-16T08:36:27.893Z,22.90
2022-12-16T08:37:27.881Z,24.80
2022-12-16T08:38:27.885Z,26.10
2022-12-16T08:39:27.852Z,24.00
2022-12-16T08:40:36.359Z,25.60
2022-12-16T08:41:28.833Z,27.10
2022-12-16T08:42:27.817Z,26.00
2022-12-16T08:43:27.827Z,23.80
2022-12-16T08:44:27.789Z,27.80
2022-12-16T08:45:27.780Z,29.70
2022-12-16T08:46:27.800Z,25.50
2022-12-16T08:47:27.749Z,25.80
2022-12-16T08:48:27.844Z,27.50
2022-12-16T08:49:27.731Z,27.10
2022-12-16T08:50:27.708Z,26.60
2022-12-16T08:51:27.698Z,28.10
2022-12-16T08:52:27.680Z,27.20
2022-12-16T08:53:27.686Z,30.80
2022-12-16T08:54:27.656Z,29.00
2022-12-16T08:55:29.653Z,29.80
2022-12-16T08:56:27.628Z,31.00
2022-12-16T08:57:27.618Z,30.10
2022-12-16T08:58:27.620Z,28.70
2022-12-16T08:59:27.590Z,28.30
2022-12-16T09:00:27.576Z,27.70
2022-12-16T09:01:27.684Z,27.90
2022-12-16T09:02:27.845Z,26.90
2022-12-16T09:03:27.613Z,28.20
2022-12-16T09:04:27.551Z,29.80
2022-12-16T09:05:27.513Z,29.00
2022-12-16T09:06:27.499Z,28.50
2022-12-16T09:07:27.495Z,29.50
2022-12-16T09:08:27.488Z,30.50
2022-12-16T09:09:27.469Z,28.90
2022-12-16T09:10:27.444Z,27.90
2022-12-16T09:11:27.429Z,37.90
2022-12-16T09:12:27.414Z,39.10
2022-12-16T09:13:27.421Z,42.80
2022-12-16T09:14:27.387Z,40.60
2022-12-16T09:15:27.414Z,40.60
2022-12-16T09:16:27.437Z,38.00
2022-12-16T09:17:27.347Z,37.00
2022-12-16T09:18:27.353Z,38.00
2022-12-16T09:19:27.326Z,42.50
2022-12-16T09:20:27.325Z,38.40
2022-12-16T09:21:31.729Z,37.10
2022-12-16T09:22:27.288Z,38.40
2022-12-16T09:23:27.289Z,37.60
2022-12-16T09:24:27.256Z,32.60
2022-12-16T09:25:27.242Z,24.90
2022-12-16T09:26:27.329Z,24.00
2022-12-16T09:27:27.219Z,22.60
2022-12-16T09:28:27.218Z,21.40
2022-12-16T09:29:27.190Z,23.10
2022-12-16T09:30:27.176Z,21.70
2022-12-16T09:31:27.264Z,20.30
2022-12-16T09:32:27.146Z,19.60
2022-12-16T09:33:27.167Z,20.40
2022-12-16T09:34:27.123Z,19.10
2022-12-16T09:35:27.111Z,17.80
2022-12-16T09:36:27.123Z,17.00
2022-12-16T09:37:27.088Z,16.20
2022-12-16T09:38:27.072Z,16.40
2022-12-16T09:39:27.074Z,16.00
2022-12-16T09:40:27.041Z,15.90
2022-12-16T09:41:27.042Z,16.40
2022-12-16T09:42:27.014Z,17.30
2022-12-16T09:43:27.011Z,17.80
2022-12-16T09:44:27.008Z,17.70
2022-12-16T09:45:26.974Z,16.30
2022-12-16T09:46:27.052Z,16.20
2022-12-16T09:47:26.959Z,17.20
2022-12-16T09:48:26.934Z,17.40
2022-12-16T09:49:26.942Z,17.40
2022-12-16T09:50:26.907Z,18.10
2022-12-16T09:51:26.895Z,17.10
2022-12-16T09:52:26.913Z,16.90
2022-12-16T09:53:26.866Z,17.30
2022-12-16T09:54:26.872Z,17.20
2022-12-16T09:55:26.842Z,17.00
2022-12-16T09:56:26.827Z,18.90
2022-12-16T09:57:26.824Z,16.10
2022-12-16T09:58:26.802Z,16.60
2022-12-16T09:59:26.809Z,16.50
2022-12-16T10:00:26.771Z,16.60
2022-12-16T10:01:26.882Z,17.20
2022-12-16T10:02:26.957Z,16.60
2022-12-16T10:03:26.856Z,16.10
2022-12-16T10:04:26.789Z,15.40
2022-12-16T10:05:26.706Z,19.40
2022-12-16T10:06:26.761Z,17.20
2022-12-16T10:07:26.681Z,16.60
2022-12-16T10:08:26.694Z,16.10
2022-12-16T10:09:26.668Z,16.20
2022-12-16T10:10:26.641Z,16.10
2022-12-16T10:11:26.625Z,15.90
2022-12-16T10:12:26.616Z,16.40
2022-12-16T10:13:26.597Z,16.30
2022-12-16T10:14:26.607Z,17.70
2022-12-16T10:15:26.571Z,17.10
2022-12-16T10:16:26.640Z,17.30
2022-12-16T10:17:26.546Z,17.40
2022-12-16T10:18:26.601Z,17.20
2022-12-16T10:19:26.536Z,17.70
2022-12-16T10:20:26.511Z,18.80
2022-12-16T10:21:26.499Z,17.10
2022-12-16T10:22:26.496Z,16.90
2022-12-16T10:23:26.466Z,16.70
2022-12-16T10:24:26.509Z,16.80
2022-12-16T10:25:26.445Z,16.70
2022-12-16T10:26:26.430Z,15.40
2022-12-16T10:27:26.413Z,14.90
2022-12-16T10:28:26.400Z,13.40
2022-12-16T10:29:26.405Z,13.70
2022-12-16T10:30:26.375Z,13.50
2022-12-16T10:31:31.356Z,14.20
2022-12-16T10:32:26.348Z,12.80
2022-12-16T10:33:26.333Z,12.50
2022-12-16T10:34:26.335Z,12.60
2022-12-16T10:35:26.303Z,12.80
2022-12-16T10:36:26.295Z,13.90
2022-12-16T10:37:26.279Z,13.20
2022-12-16T10:38:26.264Z,13.90
2022-12-16T10:39:26.267Z,13.50
2022-12-16T10:40:26.260Z,13.20
2022-12-16T10:41:26.226Z,16.20
2022-12-16T10:42:26.213Z,16.80
2022-12-16T10:43:26.196Z,19.20
2022-12-16T10:44:26.201Z,16.40
2022-12-16T10:45:26.169Z,16.10
2022-12-16T10:46:26.201Z,19.70
2022-12-16T10:47:26.145Z,18.00
2022-12-16T10:48:26.135Z,15.90
2022-12-16T10:49:26.193Z,22.70
2022-12-16T10:50:26.125Z,17.40
2022-12-16T10:51:26.093Z,13.00
2022-12-16T10:52:26.085Z,12.40
2022-12-16T10:53:26.079Z,12.20
2022-12-16T10:54:26.056Z,13.00
2022-12-16T10:55:26.062Z,12.10
2022-12-16T10:56:26.052Z,12.40
2022-12-16T10:57:26.017Z,12.00
2022-12-16T10:58:26.002Z,14.40
2022-12-16T10:59:25.985Z,12.50
2022-12-16T11:00:25.993Z,14.80
2022-12-16T11:01:26.069Z,12.70
2022-12-16T11:02:26.183Z,12.70
2022-12-16T11:03:26.093Z,11.80
2022-12-16T11:04:25.979Z,12.10
2022-12-16T11:05:25.920Z,12.40
2022-12-16T11:06:25.892Z,11.70
2022-12-16T11:07:25.882Z,12.10
2022-12-16T11:08:25.869Z,12.50
2022-12-16T11:09:25.853Z,12.70
2022-12-16T11:10:25.868Z,12.20
2022-12-16T11:11:25.834Z,12.10
2022-12-16T11:12:25.837Z,16.50
2022-12-16T11:13:25.804Z,15.20
2022-12-16T11:14:25.789Z,12.40
2022-12-16T11:15:29.789Z,11.80
2022-12-16T11:16:25.854Z,12.50
2022-12-16T11:17:25.781Z,12.80
2022-12-16T11:18:25.742Z,11.40
2022-12-16T11:19:25.725Z,10.50
2022-12-16T11:20:25.729Z,10.70
2022-12-16T11:21:25.698Z,11.40
2022-12-16T11:22:25.690Z,12.00
2022-12-16T11:23:25.672Z,14.90
2022-12-16T11:24:25.657Z,15.20
2022-12-16T11:25:25.657Z,14.10
2022-12-16T11:26:25.633Z,13.00
2022-12-16T11:27:25.617Z,13.20
2022-12-16T11:28:25.650Z,13.00
2022-12-16T11:29:25.594Z,13.50
2022-12-16T11:30:25.627Z,13.00
2022-12-16T11:31:25.724Z,13.30
2022-12-16T11:32:25.553Z,12.30
2022-12-16T11:33:25.535Z,12.10
2022-12-16T11:34:25.526Z,11.30
2022-12-16T11:35:25.529Z,11.10
2022-12-16T11:36:25.507Z,11.10
2022-12-16T11:37:25.481Z,11.40
2022-12-16T11:38:25.479Z,11.60
2022-12-16T11:39:25.459Z,10.70
2022-12-16T11:40:25.477Z,11.10
2022-12-16T11:41:25.432Z,11.10
2022-12-16T11:42:25.424Z,10.40
2022-12-16T11:43:25.403Z,10.60
2022-12-16T11:44:25.415Z,10.40
2022-12-16T11:45:25.399Z,10.30
2022-12-16T11:46:25.420Z,10.50
2022-12-16T11:47:25.354Z,10.80
2022-12-16T11:48:25.338Z,10.40
2022-12-16T11:49:25.809Z,11.00
2022-12-16T11:50:25.330Z,10.60
2022-12-16T11:51:25.300Z,11.80
2022-12-16T11:52:40.702Z,11.70
2022-12-16T11:53:26.276Z,11.90
2022-12-16T11:54:25.265Z,11.50
2022-12-16T11:55:48.112Z,11.20
2022-12-16T11:56:25.329Z,12.00
2022-12-16T11:57:25.220Z,11.00
2022-12-16T11:58:25.210Z,10.50
2022-12-16T11:59:25.208Z,10.00
2022-12-16T12:00:25.228Z,10.30
2022-12-16T12:01:25.223Z,10.70
2022-12-16T12:02:25.221Z,10.80
2022-12-16T12:03:25.344Z,9.20
2022-12-16T12:04:25.183Z,9.80
2022-12-16T12:05:25.115Z,10.30
2022-12-16T12:06:25.122Z,10.20
2022-12-16T12:07:25.087Z,10.50
2022-12-16T12:08:25.080Z,10.40
2022-12-16T12:09:25.066Z,10.40
2022-12-16T12:10:25.053Z,10.30
2022-12-16T12:11:25.054Z,10.40
2022-12-16T12:12:25.030Z,10.30
2022-12-16T12:13:25.014Z,11.10
2022-12-16T12:14:25.000Z,10.60
2022-12-16T12:15:24.984Z,10.10
2022-12-16T12:16:25.109Z,9.60
2022-12-16T12:17:24.958Z,10.10
2022-12-16T12:18:24.947Z,10.30
2022-12-16T12:19:24.934Z,10.00
2022-12-16T12:20:24.925Z,10.90
2022-12-16T12:21:24.925Z,10.60
2022-12-16T12:22:24.894Z,10.10
2022-12-16T12:23:24.884Z,10.40
2022-12-16T12:24:24.870Z,10.20
2022-12-16T12:25:24.856Z,10.00
2022-12-16T12:26:25.126Z,10.20
2022-12-16T12:27:24.825Z,10.80
2022-12-16T12:28:24.813Z,11.60
2022-12-16T12:29:24.803Z,11.30
2022-12-16T12:30:24.788Z,10.40
2022-12-16T12:31:24.871Z,10.40
2022-12-16T12:32:24.785Z,11.20
2022-12-16T12:33:24.748Z,11.50
2022-12-16T12:34:24.736Z,10.80
2022-12-16T12:35:24.719Z,10.80
2022-12-16T12:36:24.753Z,11.10
2022-12-16T12:37:24.693Z,10.60
2022-12-16T12:38:24.709Z,10.70
2022-12-16T12:39:24.668Z,13.50
2022-12-16T12:40:24.657Z,11.70
2022-12-16T12:41:24.668Z,11.60
2022-12-16T12:42:24.629Z,11.90
2022-12-16T12:43:24.616Z,12.40
2022-12-16T12:44:24.789Z,12.90
2022-12-16T12:45:24.591Z,12.20
2022-12-16T12:46:24.624Z,13.10
2022-12-16T12:47:24.565Z,13.40
2022-12-16T12:48:24.576Z,17.80
2022-12-16T12:49:24.537Z,18.80
2022-12-16T12:50:24.526Z,20.40
2022-12-16T12:51:24.525Z,16.60
2022-12-16T12:52:24.498Z,13.10
2022-12-16T12:53:24.487Z,24.30
2022-12-16T12:54:27.658Z,31.40